sensor_id;sensor_type;location;lat;lon;timestamp;P1;durP1;ratioP1;P2;durP2;ratioP2
55067;SDS011;40965;52.368;9.712;2022-07-01T00:02:02;6.07;;;4.75;;
55067;SDS011;40965;52.368;9.712;2022-07-01T00:04:30;4.65;;;3.80;;
55067;SDS011;40965;52.368;9.712;2022-07-01T00:06:57;3.80;;;3.50;;
55067;SDS011;40965;52.368;9.712;2022-07-01T00:09:24;6.20;;;4.28;;
55067;SDS011;40965;52.368;9.712;2022-07-01T00:11:52;4.40;;;3.80;;
55067;SDS011;40965;52.368;9.712;2022-07-01T00:14:19;5.43;;;3.53;;
55067;SDS011;40965;52.368;9.712;2022-07-01T00:16:47;5.03;;;3.72;;
55067;SDS011;40965;52.368;9.712;2022-07-01T00:19:16;5.45;;;3.92;;
55067;SDS011;40965;52.368;9.712;2022-07-01T00:21:43;5.63;;;3.75;;
55067;SDS011;40965;52.368;9.712;2022-07-01T00:24:10;4.70;;;3.42;;
55067;SDS011;40965;52.368;9.712;2022-07-01T00:26:37;5.80;;;3.92;;
55067;SDS011;40965;52.368;9.712;2022-07-01T00:29:04;4.40;;;3.08;;
55067;SDS011;40965;52.368;9.712;2022-07-01T00:31:31;3.38;;;2.70;;
55067;SDS011;40965;52.368;9.712;2022-07-01T00:33:58;3.97;;;2.75;;
55067;SDS011;40965;52.368;9.712;2022-07-01T00:36:24;5.22;;;2.50;;
55067;SDS011;40965;52.368;9.712;2022-07-01T00:38:51;2.45;;;2.25;;
55067;SDS011;40965;52.368;9.712;2022-07-01T00:41:18;2.35;;;1.83;;
55067;SDS011;40965;52.368;9.712;2022-07-01T00:43:45;2.05;;;1.95;;
55067;SDS011;40965;52.368;9.712;2022-07-01T00:46:13;8.32;;;2.70;;
55067;SDS011;40965;52.368;9.712;2022-07-01T00:48:40;3.53;;;2.00;;
55067;SDS011;40965;52.368;9.712;2022-07-01T00:51:10;3.03;;;2.70;;
55067;SDS011;40965;52.368;9.712;2022-07-01T00:53:38;3.88;;;3.38;;
55067;SDS011;40965;52.368;9.712;2022-07-01T00:56:05;3.33;;;2.97;;
55067;SDS011;40965;52.368;9.712;2022-07-01T00:58:33;4.85;;;3.92;;
55067;SDS011;40965;52.368;9.712;2022-07-01T01:01:00;3.60;;;3.30;;
55067;SDS011;40965;52.368;9.712;2022-07-01T01:03:27;5.53;;;4.50;;
55067;SDS011;40965;52.368;9.712;2022-07-01T01:05:54;4.47;;;4.07;;
55067;SDS011;40965;52.368;9.712;2022-07-01T01:08:22;4.43;;;4.07;;
55067;SDS011;40965;52.368;9.712;2022-07-01T01:10:50;4.97;;;4.45;;
55067;SDS011;40965;52.368;9.712;2022-07-01T01:13:24;5.53;;;4.95;;
55067;SDS011;40965;52.368;9.712;2022-07-01T01:15:51;7.90;;;5.20;;
55067;SDS011;40965;52.368;9.712;2022-07-01T01:18:18;5.03;;;4.53;;
55067;SDS011;40965;52.368;9.712;2022-07-01T01:20:45;5.50;;;4.72;;
55067;SDS011;40965;52.368;9.712;2022-07-01T01:23:12;5.97;;;5.13;;
55067;SDS011;40965;52.368;9.712;2022-07-01T01:25:38;5.82;;;5.10;;
55067;SDS011;40965;52.368;9.712;2022-07-01T01:28:05;7.50;;;5.28;;
55067;SDS011;40965;52.368;9.712;2022-07-01T01:30:32;6.90;;;4.53;;
55067;SDS011;40965;52.368;9.712;2022-07-01T01:33:00;4.57;;;4.15;;
55067;SDS011;40965;52.368;9.712;2022-07-01T01:35:29;3.95;;;3.65;;
55067;SDS011;40965;52.368;9.712;2022-07-01T01:37:56;2.83;;;2.72;;
55067;SDS011;40965;52.368;9.712;2022-07-01T01:40:23;2.90;;;2.70;;
55067;SDS011;40965;52.368;9.712;2022-07-01T01:42:51;3.22;;;2.90;;
55067;SDS011;40965;52.368;9.712;2022-07-01T01:45:18;3.28;;;3.08;;
55067;SDS011;40965;52.368;9.712;2022-07-01T01:47:46;3.65;;;3.30;;
55067;SDS011;40965;52.368;9.712;2022-07-01T01:50:13;6.05;;;3.17;;
55067;SDS011;40965;52.368;9.712;2022-07-01T01:52:41;4.63;;;2.80;;
55067;SDS011;40965;52.368;9.712;2022-07-01T01:55:09;3.50;;;3.22;;
55067;SDS011;40965;52.368;9.712;2022-07-01T01:57:36;4.95;;;3.70;;
55067;SDS011;40965;52.368;9.712;2022-07-01T02:00:04;2.45;;;2.35;;
55067;SDS011;40965;52.368;9.712;2022-07-01T02:02:37;4.45;;;2.50;;
55067;SDS011;40965;52.368;9.712;2022-07-01T02:05:05;3.40;;;2.80;;
55067;SDS011;40965;52.368;9.712;2022-07-01T02:07:39;3.10;;;2.42;;
55067;SDS011;40965;52.368;9.712;2022-07-01T02:10:06;2.45;;;2.25;;
55067;SDS011;40965;52.368;9.712;2022-07-01T02:12:34;5.00;;;2.33;;
55067;SDS011;40965;52.368;9.712;2022-07-01T02:15:00;2.83;;;2.20;;
55067;SDS011;40965;52.368;9.712;2022-07-01T02:17:28;2.30;;;2.20;;
55067;SDS011;40965;52.368;9.712;2022-07-01T02:19:55;3.45;;;2.53;;
55067;SDS011;40965;52.368;9.712;2022-07-01T02:22:25;3.58;;;2.10;;
55067;SDS011;40965;52.368;9.712;2022-07-01T02:24:51;2.08;;;1.63;;
55067;SDS011;40965;52.368;9.712;2022-07-01T02:27:19;1.50;;;1.40;;
55067;SDS011;40965;52.368;9.712;2022-07-01T02:29:46;1.40;;;0.95;;
55067;SDS011;40965;52.368;9.712;2022-07-01T02:32:13;1.20;;;1.05;;
55067;SDS011;40965;52.368;9.712;2022-07-01T02:34:40;1.65;;;0.90;;
55067;SDS011;40965;52.368;9.712;2022-07-01T02:37:07;0.98;;;0.90;;
55067;SDS011;40965;52.368;9.712;2022-07-01T02:39:34;2.05;;;1.40;;
55067;SDS011;40965;52.368;9.712;2022-07-01T02:42:01;1.40;;;1.30;;
55067;SDS011;40965;52.368;9.712;2022-07-01T02:44:46;1.80;;;1.42;;
55067;SDS011;40965;52.368;9.712;2022-07-01T02:47:13;1.75;;;1.25;;
55067;SDS011;40965;52.368;9.712;2022-07-01T02:49:40;1.45;;;1.27;;
55067;SDS011;40965;52.368;9.712;2022-07-01T02:52:07;2.97;;;2.00;;
55067;SDS011;40965;52.368;9.712;2022-07-01T02:54:36;3.63;;;1.80;;
55067;SDS011;40965;52.368;9.712;2022-07-01T02:57:03;5.22;;;2.15;;
55067;SDS011;40965;52.368;9.712;2022-07-01T02:59:33;4.10;;;2.13;;
55067;SDS011;40965;52.368;9.712;2022-07-01T03:01:59;2.10;;;2.00;;
55067;SDS011;40965;52.368;9.712;2022-07-01T03:04:26;2.38;;;2.17;;
55067;SDS011;40965;52.368;9.712;2022-07-01T03:06:53;2.90;;;2.42;;
55067;SDS011;40965;52.368;9.712;2022-07-01T03:09:20;3.20;;;2.88;;
55067;SDS011;40965;52.368;9.712;2022-07-01T03:11:47;2.88;;;2.50;;
55067;SDS011;40965;52.368;9.712;2022-07-01T03:14:14;3.85;;;2.33;;
55067;SDS011;40965;52.368;9.712;2022-07-01T03:16:44;3.10;;;2.88;;
55067;SDS011;40965;52.368;9.712;2022-07-01T03:19:15;3.63;;;3.20;;
55067;SDS011;40965;52.368;9.712;2022-07-01T03:21:42;3.20;;;2.90;;
55067;SDS011;40965;52.368;9.712;2022-07-01T03:24:09;2.95;;;2.70;;
55067;SDS011;40965;52.368;9.712;2022-07-01T03:26:38;2.63;;;2.42;;
55067;SDS011;40965;52.368;9.712;2022-07-01T03:29:04;3.20;;;2.58;;
55067;SDS011;40965;52.368;9.712;2022-07-01T03:31:31;3.67;;;2.15;;
55067;SDS011;40965;52.368;9.712;2022-07-01T03:33:58;2.92;;;2.70;;
55067;SDS011;40965;52.368;9.712;2022-07-01T03:36:25;4.43;;;2.78;;
55067;SDS011;40965;52.368;9.712;2022-07-01T03:38:52;3.50;;;2.25;;
55067;SDS011;40965;52.368;9.712;2022-07-01T03:41:21;3.25;;;2.10;;
55067;SDS011;40965;52.368;9.712;2022-07-01T03:43:48;2.58;;;2.13;;
55067;SDS011;40965;52.368;9.712;2022-07-01T03:46:15;2.47;;;1.80;;
55067;SDS011;40965;52.368;9.712;2022-07-01T03:48:42;2.13;;;1.95;;
55067;SDS011;40965;52.368;9.712;2022-07-01T03:51:08;2.53;;;2.10;;
55067;SDS011;40965;52.368;9.712;2022-07-01T03:53:38;2.72;;;1.90;;
55067;SDS011;40965;52.368;9.712;2022-07-01T03:56:22;1.30;;;1.30;;
55067;SDS011;40965;52.368;9.712;2022-07-01T03:58:48;3.00;;;1.40;;
55067;SDS011;40965;52.368;9.712;2022-07-01T04:01:19;2.17;;;0.90;;
55067;SDS011;40965;52.368;9.712;2022-07-01T04:03:46;2.33;;;1.25;;
55067;SDS011;40965;52.368;9.712;2022-07-01T04:06:13;2.45;;;1.35;;
55067;SDS011;40965;52.368;9.712;2022-07-01T04:08:40;5.18;;;1.58;;
55067;SDS011;40965;52.368;9.712;2022-07-01T04:11:07;2.35;;;1.35;;
55067;SDS011;40965;52.368;9.712;2022-07-01T04:13:35;3.75;;;1.98;;
55067;SDS011;40965;52.368;9.712;2022-07-01T04:16:03;3.38;;;1.60;;
55067;SDS011;40965;52.368;9.712;2022-07-01T04:18:30;1.45;;;1.35;;
55067;SDS011;40965;52.368;9.712;2022-07-01T04:21:01;2.05;;;1.27;;
55067;SDS011;40965;52.368;9.712;2022-07-01T04:23:45;3.42;;;1.23;;
55067;SDS011;40965;52.368;9.712;2022-07-01T04:26:13;2.67;;;1.15;;
55067;SDS011;40965;52.368;9.712;2022-07-01T04:28:41;3.38;;;1.77;;
55067;SDS011;40965;52.368;9.712;2022-07-01T04:31:16;2.78;;;1.42;;
55067;SDS011;40965;52.368;9.712;2022-07-01T04:33:44;2.38;;;1.40;;
55067;SDS011;40965;52.368;9.712;2022-07-01T04:36:11;2.42;;;1.80;;
55067;SDS011;40965;52.368;9.712;2022-07-01T04:38:38;2.17;;;1.90;;
55067;SDS011;40965;52.368;9.712;2022-07-01T04:41:05;2.88;;;1.40;;
55067;SDS011;40965;52.368;9.712;2022-07-01T04:43:49;2.20;;;1.67;;
55067;SDS011;40965;52.368;9.712;2022-07-01T04:46:16;2.58;;;1.48;;
55067;SDS011;40965;52.368;9.712;2022-07-01T04:48:43;3.40;;;1.83;;
55067;SDS011;40965;52.368;9.712;2022-07-01T04:51:09;4.72;;;1.75;;
55067;SDS011;40965;52.368;9.712;2022-07-01T04:53:39;2.63;;;1.60;;
55067;SDS011;40965;52.368;9.712;2022-07-01T04:56:14;4.82;;;1.25;;
55067;SDS011;40965;52.368;9.712;2022-07-01T04:58:42;4.97;;;1.85;;
55067;SDS011;40965;52.368;9.712;2022-07-01T05:01:09;4.10;;;1.73;;
55067;SDS011;40965;52.368;9.712;2022-07-01T05:03:39;2.05;;;1.50;;
55067;SDS011;40965;52.368;9.712;2022-07-01T05:06:05;2.70;;;1.88;;
55067;SDS011;40965;52.368;9.712;2022-07-01T05:08:32;1.38;;;1.27;;
55067;SDS011;40965;52.368;9.712;2022-07-01T05:10:59;2.22;;;1.50;;
55067;SDS011;40965;52.368;9.712;2022-07-01T05:13:28;2.42;;;1.42;;
55067;SDS011;40965;52.368;9.712;2022-07-01T05:15:55;3.67;;;1.20;;
55067;SDS011;40965;52.368;9.712;2022-07-01T05:18:22;3.33;;;1.23;;
55067;SDS011;40965;52.368;9.712;2022-07-01T05:21:06;5.60;;;1.50;;
55067;SDS011;40965;52.368;9.712;2022-07-01T05:23:50;1.88;;;1.48;;
55067;SDS011;40965;52.368;9.712;2022-07-01T05:26:18;1.85;;;1.70;;
55067;SDS011;40965;52.368;9.712;2022-07-01T05:28:49;3.00;;;2.15;;
55067;SDS011;40965;52.368;9.712;2022-07-01T05:31:19;2.20;;;2.03;;
55067;SDS011;40965;52.368;9.712;2022-07-01T05:33:46;2.88;;;2.00;;
55067;SDS011;40965;52.368;9.712;2022-07-01T05:36:14;2.63;;;1.98;;
55067;SDS011;40965;52.368;9.712;2022-07-01T05:38:41;4.22;;;2.38;;
55067;SDS011;40965;52.368;9.712;2022-07-01T05:41:08;2.50;;;2.38;;
55067;SDS011;40965;52.368;9.712;2022-07-01T05:43:35;3.03;;;2.80;;
55067;SDS011;40965;52.368;9.712;2022-07-01T05:46:02;2.78;;;2.42;;
55067;SDS011;40965;52.368;9.712;2022-07-01T05:48:31;3.13;;;2.92;;
55067;SDS011;40965;52.368;9.712;2022-07-01T05:50:58;6.22;;;3.58;;
55067;SDS011;40965;52.368;9.712;2022-07-01T05:53:27;5.07;;;3.40;;
55067;SDS011;40965;52.368;9.712;2022-07-01T05:55:54;3.42;;;3.22;;
55067;SDS011;40965;52.368;9.712;2022-07-01T05:58:21;3.97;;;3.63;;
55067;SDS011;40965;52.368;9.712;2022-07-01T06:00:48;3.15;;;2.90;;
55067;SDS011;40965;52.368;9.712;2022-07-01T06:03:15;3.80;;;3.03;;
55067;SDS011;40965;52.368;9.712;2022-07-01T06:05:42;4.10;;;3.70;;
55067;SDS011;40965;52.368;9.712;2022-07-01T06:08:12;3.25;;;3.05;;
55067;SDS011;40965;52.368;9.712;2022-07-01T06:10:39;6.20;;;3.85;;
55067;SDS011;40965;52.368;9.712;2022-07-01T06:13:06;4.15;;;3.53;;
55067;SDS011;40965;52.368;9.712;2022-07-01T06:15:36;5.85;;;3.33;;
55067;SDS011;40965;52.368;9.712;2022-07-01T06:18:05;10.30;;;3.63;;
55067;SDS011;40965;52.368;9.712;2022-07-01T06:20:32;3.08;;;2.78;;
55067;SDS011;40965;52.368;9.712;2022-07-01T06:22:59;3.90;;;3.53;;
55067;SDS011;40965;52.368;9.712;2022-07-01T06:25:26;6.72;;;4.00;;
55067;SDS011;40965;52.368;9.712;2022-07-01T06:27:54;3.85;;;3.47;;
55067;SDS011;40965;52.368;9.712;2022-07-01T06:30:21;5.93;;;3.92;;
55067;SDS011;40965;52.368;9.712;2022-07-01T06:32:51;4.95;;;4.03;;
55067;SDS011;40965;52.368;9.712;2022-07-01T06:35:18;3.92;;;3.00;;
55067;SDS011;40965;52.368;9.712;2022-07-01T06:37:44;4.30;;;3.45;;
55067;SDS011;40965;52.368;9.712;2022-07-01T06:40:11;4.50;;;4.03;;
55067;SDS011;40965;52.368;9.712;2022-07-01T06:42:40;3.67;;;3.38;;
55067;SDS011;40965;52.368;9.712;2022-07-01T06:45:07;4.63;;;4.00;;
55067;SDS011;40965;52.368;9.712;2022-07-01T06:47:39;10.75;;;4.47;;
55067;SDS011;40965;52.368;9.712;2022-07-01T06:50:06;5.18;;;4.07;;
55067;SDS011;40965;52.368;9.712;2022-07-01T06:52:34;4.32;;;3.90;;
55067;SDS011;40965;52.368;9.712;2022-07-01T06:55:01;4.88;;;4.38;;
55067;SDS011;40965;52.368;9.712;2022-07-01T06:57:28;4.47;;;4.13;;
55067;SDS011;40965;52.368;9.712;2022-07-01T06:59:58;4.47;;;4.07;;
55067;SDS011;40965;52.368;9.712;2022-07-01T07:02:30;5.78;;;3.92;;
55067;SDS011;40965;52.368;9.712;2022-07-01T07:04:58;5.05;;;3.83;;
55067;SDS011;40965;52.368;9.712;2022-07-01T07:07:25;5.05;;;3.55;;
55067;SDS011;40965;52.368;9.712;2022-07-01T07:09:53;5.45;;;4.38;;
55067;SDS011;40965;52.368;9.712;2022-07-01T07:12:22;4.65;;;4.10;;
55067;SDS011;40965;52.368;9.712;2022-07-01T07:14:53;5.05;;;4.55;;
55067;SDS011;40965;52.368;9.712;2022-07-01T07:17:45;4.22;;;3.83;;
55067;SDS011;40965;52.368;9.712;2022-07-01T07:20:15;4.60;;;4.10;;
55067;SDS011;40965;52.368;9.712;2022-07-01T07:22:42;6.05;;;4.50;;
55067;SDS011;40965;52.368;9.712;2022-07-01T07:25:09;5.60;;;5.00;;
55067;SDS011;40965;52.368;9.712;2022-07-01T07:27:37;5.22;;;4.72;;
55067;SDS011;40965;52.368;9.712;2022-07-01T07:30:12;5.88;;;5.05;;
55067;SDS011;40965;52.368;9.712;2022-07-01T07:32:42;5.13;;;4.72;;
55067;SDS011;40965;52.368;9.712;2022-07-01T07:35:12;6.50;;;5.88;;
55067;SDS011;40965;52.368;9.712;2022-07-01T07:37:48;7.90;;;5.68;;
55067;SDS011;40965;52.368;9.712;2022-07-01T07:40:16;5.30;;;4.80;;
55067;SDS011;40965;52.368;9.712;2022-07-01T07:42:46;6.32;;;5.80;;
55067;SDS011;40965;52.368;9.712;2022-07-01T07:45:18;8.35;;;5.82;;
55067;SDS011;40965;52.368;9.712;2022-07-01T07:47:47;7.22;;;6.18;;
55067;SDS011;40965;52.368;9.712;2022-07-01T07:50:20;6.22;;;5.68;;
55067;SDS011;40965;52.368;9.712;2022-07-01T07:52:52;9.05;;;8.15;;
55067;SDS011;40965;52.368;9.712;2022-07-01T07:55:19;7.10;;;6.38;;
55067;SDS011;40965;52.368;9.712;2022-07-01T07:57:50;7.28;;;6.63;;
55067;SDS011;40965;52.368;9.712;2022-07-01T08:00:21;8.05;;;6.60;;
55067;SDS011;40965;52.368;9.712;2022-07-01T08:02:53;7.28;;;6.53;;
55067;SDS011;40965;52.368;9.712;2022-07-01T08:05:20;7.63;;;5.63;;
55067;SDS011;40965;52.368;9.712;2022-07-01T08:07:48;7.28;;;6.20;;
55067;SDS011;40965;52.368;9.712;2022-07-01T08:10:18;8.38;;;6.18;;
55067;SDS011;40965;52.368;9.712;2022-07-01T08:12:45;17.83;;;7.05;;
55067;SDS011;40965;52.368;9.712;2022-07-01T08:15:16;6.68;;;6.05;;
55067;SDS011;40965;52.368;9.712;2022-07-01T08:17:45;8.52;;;6.47;;
55067;SDS011;40965;52.368;9.712;2022-07-01T08:20:15;6.68;;;6.07;;
55067;SDS011;40965;52.368;9.712;2022-07-01T08:22:48;5.47;;;5.00;;
55067;SDS011;40965;52.368;9.712;2022-07-01T08:25:15;7.07;;;5.25;;
55067;SDS011;40965;52.368;9.712;2022-07-01T08:27:42;7.18;;;6.43;;
55067;SDS011;40965;52.368;9.712;2022-07-01T08:30:10;7.72;;;6.53;;
55067;SDS011;40965;52.368;9.712;2022-07-01T08:32:40;6.65;;;6.15;;
55067;SDS011;40965;52.368;9.712;2022-07-01T08:35:08;6.28;;;5.78;;
55067;SDS011;40965;52.368;9.712;2022-07-01T08:37:35;9.93;;;6.63;;
55067;SDS011;40965;52.368;9.712;2022-07-01T08:40:08;7.03;;;5.88;;
55067;SDS011;40965;52.368;9.712;2022-07-01T08:42:37;6.07;;;5.53;;
55067;SDS011;40965;52.368;9.712;2022-07-01T08:45:12;6.15;;;5.55;;
55067;SDS011;40965;52.368;9.712;2022-07-01T08:47:50;5.82;;;5.28;;
55067;SDS011;40965;52.368;9.712;2022-07-01T08:50:33;6.88;;;6.18;;
55067;SDS011;40965;52.368;9.712;2022-07-01T08:53:05;5.53;;;5.07;;
55067;SDS011;40965;52.368;9.712;2022-07-01T08:55:34;6.63;;;5.93;;
55067;SDS011;40965;52.368;9.712;2022-07-01T08:58:27;5.82;;;5.13;;
55067;SDS011;40965;52.368;9.712;2022-07-01T09:01:11;6.25;;;5.75;;
55067;SDS011;40965;52.368;9.712;2022-07-01T09:03:48;6.93;;;6.35;;
55067;SDS011;40965;52.368;9.712;2022-07-01T09:06:19;10.40;;;6.95;;
55067;SDS011;40965;52.368;9.712;2022-07-01T09:08:50;7.43;;;6.72;;
55067;SDS011;40965;52.368;9.712;2022-07-01T09:11:18;6.97;;;6.38;;
55067;SDS011;40965;52.368;9.712;2022-07-01T09:14:05;6.57;;;5.97;;
55067;SDS011;40965;52.368;9.712;2022-07-01T09:16:41;8.43;;;7.63;;
55067;SDS011;40965;52.368;9.712;2022-07-01T09:19:18;9.75;;;6.53;;
55067;SDS011;40965;52.368;9.712;2022-07-01T09:21:55;6.28;;;5.78;;
55067;SDS011;40965;52.368;9.712;2022-07-01T09:24:32;7.03;;;6.32;;
55067;SDS011;40965;52.368;9.712;2022-07-01T09:27:13;9.98;;;6.45;;
55067;SDS011;40965;52.368;9.712;2022-07-01T09:29:43;6.25;;;5.75;;
55067;SDS011;40965;52.368;9.712;2022-07-01T09:32:20;7.20;;;6.50;;
55067;SDS011;40965;52.368;9.712;2022-07-01T09:34:51;7.28;;;6.55;;
55067;SDS011;40965;52.368;9.712;2022-07-01T09:37:20;10.45;;;7.05;;
55067;SDS011;40965;52.368;9.712;2022-07-01T09:39:58;8.18;;;6.88;;
55067;SDS011;40965;52.368;9.712;2022-07-01T09:42:26;8.32;;;7.38;;
55067;SDS011;40965;52.368;9.712;2022-07-01T09:45:00;9.77;;;8.55;;
55067;SDS011;40965;52.368;9.712;2022-07-01T09:47:33;12.95;;;7.90;;
55067;SDS011;40965;52.368;9.712;2022-07-01T09:50:05;10.75;;;8.43;;
55067;SDS011;40965;52.368;9.712;2022-07-01T09:52:34;11.60;;;8.35;;
55067;SDS011;40965;52.368;9.712;2022-07-01T09:55:07;11.07;;;8.52;;
55067;SDS011;40965;52.368;9.712;2022-07-01T09:57:36;9.45;;;8.25;;
55067;SDS011;40965;52.368;9.712;2022-07-01T10:00:05;8.38;;;7.57;;
55067;SDS011;40965;52.368;9.712;2022-07-01T10:02:36;11.27;;;9.15;;
55067;SDS011;40965;52.368;9.712;2022-07-01T10:05:06;8.75;;;7.85;;
55067;SDS011;40965;52.368;9.712;2022-07-01T10:07:52;8.63;;;7.65;;
55067;SDS011;40965;52.368;9.712;2022-07-01T10:14:11;9.05;;;8.13;;
55067;SDS011;40965;52.368;9.712;2022-07-01T10:16:39;8.90;;;7.88;;
55067;SDS011;40965;52.368;9.712;2022-07-01T10:21:52;10.00;;;8.88;;
55067;SDS011;40965;52.368;9.712;2022-07-01T10:25:28;10.35;;;8.45;;
55067;SDS011;40965;52.368;9.712;2022-07-01T10:30:57;8.27;;;7.40;;
55067;SDS011;40965;52.368;9.712;2022-07-01T10:44:06;10.43;;;9.32;;
55067;SDS011;40965;52.368;9.712;2022-07-01T10:46:46;9.38;;;7.70;;
55067;SDS011;40965;52.368;9.712;2022-07-01T10:52:14;12.27;;;8.90;;
55067;SDS011;40965;52.368;9.712;2022-07-01T10:55:13;11.73;;;9.18;;
55067;SDS011;40965;52.368;9.712;2022-07-01T10:57:40;9.85;;;8.95;;
55067;SDS011;40965;52.368;9.712;2022-07-01T11:02:38;8.70;;;7.88;;
55067;SDS011;40965;52.368;9.712;2022-07-01T11:05:10;9.85;;;8.65;;
55067;SDS011;40965;52.368;9.712;2022-07-01T11:07:45;8.95;;;7.70;;
55067;SDS011;40965;52.368;9.712;2022-07-01T11:10:16;10.73;;;9.07;;
55067;SDS011;40965;52.368;9.712;2022-07-01T11:12:47;10.10;;;8.35;;
55067;SDS011;40965;52.368;9.712;2022-07-01T11:15:17;9.93;;;8.93;;
55067;SDS011;40965;52.368;9.712;2022-07-01T11:17:46;10.30;;;9.27;;
55067;SDS011;40965;52.368;9.712;2022-07-01T11:20:21;15.85;;;10.52;;
55067;SDS011;40965;52.368;9.712;2022-07-01T11:22:53;14.35;;;9.13;;
55067;SDS011;40965;52.368;9.712;2022-07-01T11:25:20;10.82;;;9.73;;
55067;SDS011;40965;52.368;9.712;2022-07-01T11:27:51;10.23;;;9.07;;
55067;SDS011;40965;52.368;9.712;2022-07-01T11:30:19;10.77;;;8.60;;
55067;SDS011;40965;52.368;9.712;2022-07-01T11:32:53;9.20;;;8.25;;
55067;SDS011;40965;52.368;9.712;2022-07-01T11:35:24;9.25;;;8.25;;
55067;SDS011;40965;52.368;9.712;2022-07-01T11:41:04;9.02;;;7.47;;
55067;SDS011;40965;52.368;9.712;2022-07-01T11:43:39;7.80;;;7.10;;
55067;SDS011;40965;52.368;9.712;2022-07-01T11:46:10;7.82;;;5.63;;
55067;SDS011;40965;52.368;9.712;2022-07-01T11:48:41;7.22;;;5.05;;
55067;SDS011;40965;52.368;9.712;2022-07-01T11:51:15;7.00;;;5.15;;
55067;SDS011;40965;52.368;9.712;2022-07-01T11:53:52;4.70;;;4.40;;
55067;SDS011;40965;52.368;9.712;2022-07-01T11:56:33;5.00;;;3.88;;
55067;SDS011;40965;52.368;9.712;2022-07-01T11:59:15;5.00;;;3.97;;
55067;SDS011;40965;52.368;9.712;2022-07-01T12:01:55;5.20;;;3.55;;
55067;SDS011;40965;52.368;9.712;2022-07-01T12:04:24;5.40;;;3.38;;
55067;SDS011;40965;52.368;9.712;2022-07-01T12:07:04;4.25;;;3.45;;
55067;SDS011;40965;52.368;9.712;2022-07-01T12:10:22;6.00;;;3.92;;
55067;SDS011;40965;52.368;9.712;2022-07-01T12:12:55;4.63;;;4.03;;
55067;SDS011;40965;52.368;9.712;2022-07-01T12:15:35;4.18;;;3.72;;
55067;SDS011;40965;52.368;9.712;2022-07-01T12:18:05;3.72;;;3.42;;
55067;SDS011;40965;52.368;9.712;2022-07-01T12:20:36;5.00;;;3.08;;
55067;SDS011;40965;52.368;9.712;2022-07-01T12:23:15;4.53;;;3.50;;
55067;SDS011;40965;52.368;9.712;2022-07-01T12:25:50;5.03;;;3.58;;
55067;SDS011;40965;52.368;9.712;2022-07-01T12:31:29;8.18;;;2.88;;
55067;SDS011;40965;52.368;9.712;2022-07-01T12:34:53;5.85;;;3.58;;
55067;SDS011;40965;52.368;9.712;2022-07-01T12:37:51;5.10;;;3.13;;
55067;SDS011;40965;52.368;9.712;2022-07-01T12:40:23;4.63;;;3.67;;
55067;SDS011;40965;52.368;9.712;2022-07-01T12:43:01;3.42;;;3.17;;
55067;SDS011;40965;52.368;9.712;2022-07-01T12:46:09;3.85;;;2.90;;
55067;SDS011;40965;52.368;9.712;2022-07-01T12:49:00;7.13;;;3.55;;
55067;SDS011;40965;52.368;9.712;2022-07-01T12:51:32;4.97;;;4.00;;
55067;SDS011;40965;52.368;9.712;2022-07-01T12:54:03;5.88;;;3.58;;
55067;SDS011;40965;52.368;9.712;2022-07-01T12:56:35;3.40;;;2.90;;
55067;SDS011;40965;52.368;9.712;2022-07-01T12:59:02;4.03;;;3.33;;
55067;SDS011;40965;52.368;9.712;2022-07-01T13:01:30;3.45;;;3.15;;
55067;SDS011;40965;52.368;9.712;2022-07-01T13:04:00;3.85;;;3.45;;
55067;SDS011;40965;52.368;9.712;2022-07-01T13:06:33;4.00;;;3.70;;
55067;SDS011;40965;52.368;9.712;2022-07-01T13:09:02;5.82;;;3.42;;
55067;SDS011;40965;52.368;9.712;2022-07-01T13:11:30;4.63;;;3.30;;
55067;SDS011;40965;52.368;9.712;2022-07-01T13:13:59;3.28;;;2.97;;
55067;SDS011;40965;52.368;9.712;2022-07-01T13:16:36;4.80;;;4.00;;
55067;SDS011;40965;52.368;9.712;2022-07-01T13:19:04;4.82;;;3.00;;
55067;SDS011;40965;52.368;9.712;2022-07-01T13:21:41;5.13;;;3.72;;
55067;SDS011;40965;52.368;9.712;2022-07-01T13:24:08;3.85;;;3.55;;
55067;SDS011;40965;52.368;9.712;2022-07-01T13:26:37;4.00;;;3.60;;
55067;SDS011;40965;52.368;9.712;2022-07-01T13:29:22;3.58;;;3.28;;
55067;SDS011;40965;52.368;9.712;2022-07-01T13:31:55;4.47;;;3.95;;
55067;SDS011;40965;52.368;9.712;2022-07-01T13:34:26;4.15;;;3.22;;
55067;SDS011;40965;52.368;9.712;2022-07-01T13:36:53;4.03;;;3.22;;
55067;SDS011;40965;52.368;9.712;2022-07-01T13:40:12;5.15;;;3.55;;
55067;SDS011;40965;52.368;9.712;2022-07-01T13:45:34;4.10;;;3.65;;
55067;SDS011;40965;52.368;9.712;2022-07-01T13:48:03;4.60;;;3.35;;
55067;SDS011;40965;52.368;9.712;2022-07-01T13:50:31;4.00;;;3.60;;
55067;SDS011;40965;52.368;9.712;2022-07-01T13:52:58;3.40;;;2.85;;
55067;SDS011;40965;52.368;9.712;2022-07-01T13:55:29;3.40;;;3.10;;
55067;SDS011;40965;52.368;9.712;2022-07-01T13:57:56;4.70;;;3.38;;
55067;SDS011;40965;52.368;9.712;2022-07-01T14:00:23;4.38;;;3.08;;
55067;SDS011;40965;52.368;9.712;2022-07-01T14:02:50;5.13;;;3.50;;
55067;SDS011;40965;52.368;9.712;2022-07-01T14:05:17;5.85;;;3.47;;
55067;SDS011;40965;52.368;9.712;2022-07-01T14:07:45;3.25;;;2.90;;
55067;SDS011;40965;52.368;9.712;2022-07-01T14:10:13;4.63;;;2.88;;
55067;SDS011;40965;52.368;9.712;2022-07-01T14:12:44;3.30;;;2.55;;
55067;SDS011;40965;52.368;9.712;2022-07-01T14:15:17;3.65;;;2.70;;
55067;SDS011;40965;52.368;9.712;2022-07-01T14:17:47;2.47;;;2.28;;
55067;SDS011;40965;52.368;9.712;2022-07-01T14:20:19;4.85;;;2.38;;
55067;SDS011;40965;52.368;9.712;2022-07-01T14:22:47;4.13;;;2.55;;
55067;SDS011;40965;52.368;9.712;2022-07-01T14:25:30;4.75;;;2.83;;
55067;SDS011;40965;52.368;9.712;2022-07-01T14:28:00;2.28;;;2.00;;
55067;SDS011;40965;52.368;9.712;2022-07-01T14:30:27;2.15;;;2.05;;
55067;SDS011;40965;52.368;9.712;2022-07-01T14:33:00;2.35;;;2.13;;
55067;SDS011;40965;52.368;9.712;2022-07-01T14:35:33;2.35;;;1.92;;
55067;SDS011;40965;52.368;9.712;2022-07-01T14:38:03;2.95;;;2.00;;
55067;SDS011;40965;52.368;9.712;2022-07-01T14:40:31;2.00;;;1.90;;
55067;SDS011;40965;52.368;9.712;2022-07-01T14:43:08;2.97;;;1.83;;
55067;SDS011;40965;52.368;9.712;2022-07-01T14:45:37;4.10;;;2.22;;
55067;SDS011;40965;52.368;9.712;2022-07-01T14:48:09;2.58;;;2.13;;
55067;SDS011;40965;52.368;9.712;2022-07-01T14:50:37;4.40;;;3.78;;
55067;SDS011;40965;52.368;9.712;2022-07-01T14:53:08;2.88;;;1.98;;
55067;SDS011;40965;52.368;9.712;2022-07-01T14:55:39;2.40;;;2.03;;
55067;SDS011;40965;52.368;9.712;2022-07-01T14:58:08;2.40;;;2.05;;
55067;SDS011;40965;52.368;9.712;2022-07-01T15:00:45;1.98;;;1.70;;
55067;SDS011;40965;52.368;9.712;2022-07-01T15:03:15;4.68;;;1.38;;
55067;SDS011;40965;52.368;9.712;2022-07-01T15:05:45;2.67;;;1.98;;
55067;SDS011;40965;52.368;9.712;2022-07-01T15:08:14;4.72;;;1.95;;
55067;SDS011;40965;52.368;9.712;2022-07-01T15:10:41;1.60;;;1.50;;
55067;SDS011;40965;52.368;9.712;2022-07-01T15:13:10;1.77;;;1.67;;
55067;SDS011;40965;52.368;9.712;2022-07-01T15:15:39;2.55;;;1.92;;
55067;SDS011;40965;52.368;9.712;2022-07-01T15:18:07;1.38;;;1.27;;
55067;SDS011;40965;52.368;9.712;2022-07-01T15:20:34;3.40;;;1.40;;
55067;SDS011;40965;52.368;9.712;2022-07-01T15:23:01;1.35;;;1.30;;
55067;SDS011;40965;52.368;9.712;2022-07-01T15:25:28;4.13;;;1.60;;
55067;SDS011;40965;52.368;9.712;2022-07-01T15:27:59;1.15;;;1.15;;
55067;SDS011;40965;52.368;9.712;2022-07-01T15:30:34;1.38;;;1.27;;
55067;SDS011;40965;52.368;9.712;2022-07-01T15:33:01;2.97;;;1.35;;
55067;SDS011;40965;52.368;9.712;2022-07-01T15:35:31;2.08;;;1.70;;
55067;SDS011;40965;52.368;9.712;2022-07-01T15:38:01;2.45;;;1.30;;
55067;SDS011;40965;52.368;9.712;2022-07-01T15:40:30;1.95;;;1.75;;
55067;SDS011;40965;52.368;9.712;2022-07-01T15:43:06;2.38;;;1.63;;
55067;SDS011;40965;52.368;9.712;2022-07-01T15:45:37;2.05;;;1.23;;